sensor_id;sensor_type;location;lat;lon;timestamp;pressure;altitude;pressure_sealevel;temperature;humidity
46291;BME280;32023;44.444;26.006;2023-03-16T00:00:12;99488.06;;;8.07;78.92
46291;BME280;32023;44.444;26.006;2023-03-16T00:02:47;99479.28;;;8.05;79.06
46291;BME280;32023;44.444;26.006;2023-03-16T00:05:16;99487.25;;;8.06;78.92
46291;BME280;32023;44.444;26.006;2023-03-16T00:07:45;99479.28;;;8.05;78.89
46291;BME280;32023;44.444;26.006;2023-03-16T00:10:14;99495.72;;;8.05;78.86
46291;BME280;32023;44.444;26.006;2023-03-16T00:12:43;99491.13;;;8.10;78.94
46291;BME280;32023;44.444;26.006;2023-03-16T00:15:10;99487.53;;;8.10;78.80
46291;BME280;32023;44.444;26.006;2023-03-16T00:17:47;99493.59;;;8.12;78.62
46291;BME280;32023;44.444;26.006;2023-03-16T00:22:59;99497.97;;;8.13;78.58
46291;BME280;32023;44.444;26.006;2023-03-16T00:25:27;99501.81;;;8.12;78.47
46291;BME280;32023;44.444;26.006;2023-03-16T00:27:54;99501.53;;;8.13;78.62
46291;BME280;32023;44.444;26.006;2023-03-16T00:33:24;99495.22;;;8.08;78.77
46291;BME280;32023;44.444;26.006;2023-03-16T00:38:52;99482.06;;;8.10;78.65
46291;BME280;32023;44.444;26.006;2023-03-16T00:43:57;99480.41;;;8.09;78.36
46291;BME280;32023;44.444;26.006;2023-03-16T00:46:34;99482.06;;;8.10;78.40
46291;BME280;32023;44.444;26.006;2023-03-16T00:49:01;99485.38;;;8.12;78.64
46291;BME280;32023;44.444;26.006;2023-03-16T00:51:27;99480.97;;;8.11;78.37
46291;BME280;32023;44.444;26.006;2023-03-16T00:53:55;99485.66;;;8.15;77.94
46291;BME280;32023;44.444;26.006;2023-03-16T00:56:38;99489.19;;;8.11;77.74
46291;BME280;32023;44.444;26.006;2023-03-16T00:59:10;99498.50;;;8.10;77.85
46291;BME280;32023;44.444;26.006;2023-03-16T01:01:37;99499.59;;;8.09;77.51
46291;BME280;32023;44.444;26.006;2023-03-16T01:04:04;99498.50;;;8.10;77.29
46291;BME280;32023;44.444;26.006;2023-03-16T01:06:37;99492.19;;;8.09;77.45
46291;BME280;32023;44.444;26.006;2023-03-16T01:09:03;99498.50;;;8.10;77.14
46291;BME280;32023;44.444;26.006;2023-03-16T01:11:30;99510.06;;;8.12;77.08
46291;BME280;32023;44.444;26.006;2023-03-16T01:13:58;99510.06;;;8.12;76.82
46291;BME280;32023;44.444;26.006;2023-03-16T01:16:26;99522.34;;;8.09;77.14
46291;BME280;32023;44.444;26.006;2023-03-16T01:18:55;99515.50;;;8.07;76.85
46291;BME280;32023;44.444;26.006;2023-03-16T01:21:22;99525.38;;;8.08;76.83
46291;BME280;32023;44.444;26.006;2023-03-16T01:23:48;99535.22;;;8.09;76.64
46291;BME280;32023;44.444;26.006;2023-03-16T01:26:15;99508.19;;;7.86;76.80
46291;BME280;32023;44.444;26.006;2023-03-16T01:28:42;99542.91;;;8.07;77.18
46291;BME280;32023;44.444;26.006;2023-03-16T01:31:12;99541.84;;;8.08;76.96
46291;BME280;32023;44.444;26.006;2023-03-16T01:33:40;99547.88;;;8.10;77.21
46291;BME280;32023;44.444;26.006;2023-03-16T01:36:07;99557.69;;;8.06;77.12
46291;BME280;32023;44.444;26.006;2023-03-16T01:38:37;99555.00;;;8.11;77.14
46291;BME280;32023;44.444;26.006;2023-03-16T01:41:03;99550.34;;;8.11;77.01
46291;BME280;32023;44.444;26.006;2023-03-16T01:43:33;99563.22;;;8.11;76.67
46291;BME280;32023;44.444;26.006;2023-03-16T01:48:36;99567.84;;;8.05;76.52
46291;BME280;32023;44.444;26.006;2023-03-16T01:54:09;99562.06;;;8.02;76.07
46291;BME280;32023;44.444;26.006;2023-03-16T01:56:44;99573.56;;;7.99;76.16
46291;BME280;32023;44.444;26.006;2023-03-16T01:59:13;99572.19;;;7.96;76.24
46291;BME280;32023;44.444;26.006;2023-03-16T02:01:41;99580.41;;;7.96;76.25
46291;BME280;32023;44.444;26.006;2023-03-16T02:06:53;99578.75;;;7.95;76.40
46291;BME280;32023;44.444;26.006;2023-03-16T02:09:20;99578.97;;;7.94;75.80
46291;BME280;32023;44.444;26.006;2023-03-16T02:11:47;99580.03;;;7.88;75.58
46291;BME280;32023;44.444;26.006;2023-03-16T02:14:13;99581.91;;;7.82;75.20
46291;BME280;32023;44.444;26.006;2023-03-16T02:16:40;99583.84;;;7.82;75.47
46291;BME280;32023;44.444;26.006;2023-03-16T02:19:08;99584.94;;;7.86;75.15
46291;BME280;32023;44.444;26.006;2023-03-16T02:24:03;99591.06;;;7.93;74.39
46291;BME280;32023;44.444;26.006;2023-03-16T02:26:45;99587.44;;;7.87;73.84
46291;BME280;32023;44.444;26.006;2023-03-16T02:31:45;99603.28;;;7.80;73.38
46291;BME280;32023;44.444;26.006;2023-03-16T02:34:12;99596.66;;;7.76;73.38
46291;BME280;32023;44.444;26.006;2023-03-16T02:36:38;99594.91;;;7.65;72.89
46291;BME280;32023;44.444;26.006;2023-03-16T02:39:06;99603.97;;;7.65;72.69
46291;BME280;32023;44.444;26.006;2023-03-16T02:41:36;99606.94;;;7.64;72.65
46291;BME280;32023;44.444;26.006;2023-03-16T02:44:07;99609.13;;;7.62;72.28
46291;BME280;32023;44.444;26.006;2023-03-16T02:46:39;99613.84;;;7.66;72.01
46291;BME280;32023;44.444;26.006;2023-03-16T02:49:12;99598.19;;;7.67;71.45
46291;BME280;32023;44.444;26.006;2023-03-16T02:51:41;99608.03;;;7.63;70.93
46291;BME280;32023;44.444;26.006;2023-03-16T02:54:08;99598.47;;;7.65;71.02
46291;BME280;32023;44.444;26.006;2023-03-16T02:59:05;99608.84;;;7.63;70.70
46291;BME280;32023;44.444;26.006;2023-03-16T03:01:31;99610.53;;;7.64;70.33
46291;BME280;32023;44.444;26.006;2023-03-16T03:04:02;99600.63;;;7.63;69.99
46291;BME280;32023;44.444;26.006;2023-03-16T03:09:14;99606.63;;;7.60;69.86
46291;BME280;32023;44.444;26.006;2023-03-16T03:11:43;99614.56;;;7.57;69.91
46291;BME280;32023;44.444;26.006;2023-03-16T03:14:10;99613.16;;;7.54;70.04
46291;BME280;32023;44.444;26.006;2023-03-16T03:16:37;99604.88;;;7.49;70.34
46291;BME280;32023;44.444;26.006;2023-03-16T03:19:05;99628.72;;;7.49;70.36
46291;BME280;32023;44.444;26.006;2023-03-16T03:21:32;99614.97;;;7.44;70.81
46291;BME280;32023;44.444;26.006;2023-03-16T03:23:58;99626.50;;;7.46;70.46
46291;BME280;32023;44.444;26.006;2023-03-16T03:26:24;99628.34;;;7.40;70.58
46291;BME280;32023;44.444;26.006;2023-03-16T03:28:50;99626.63;;;7.34;70.43
46291;BME280;32023;44.444;26.006;2023-03-16T03:31:18;99632.13;;;7.34;70.66
46291;BME280;32023;44.444;26.006;2023-03-16T03:33:45;99631.59;;;7.37;70.74
46291;BME280;32023;44.444;26.006;2023-03-16T03:36:12;99645.88;;;7.39;70.42
46291;BME280;32023;44.444;26.006;2023-03-16T03:38:39;99646.44;;;7.41;70.38
46291;BME280;32023;44.444;26.006;2023-03-16T03:41:07;99642.53;;;7.37;70.26
46291;BME280;32023;44.444;26.006;2023-03-16T03:43:36;99639.81;;;7.37;69.94
46291;BME280;32023;44.444;26.006;2023-03-16T03:46:02;99651.03;;;7.36;70.23
46291;BME280;32023;44.444;26.006;2023-03-16T03:48:31;99649.88;;;7.32;70.30
46291;BME280;32023;44.444;26.006;2023-03-16T03:50:58;99639.06;;;7.20;70.39
46291;BME280;32023;44.444;26.006;2023-03-16T03:53:24;99647.81;;;7.17;70.85
46291;BME280;32023;44.444;26.006;2023-03-16T03:55:51;99658.44;;;7.13;70.81
46291;BME280;32023;44.444;26.006;2023-03-16T03:58:17;99663.09;;;7.13;70.99
46291;BME280;32023;44.444;26.006;2023-03-16T04:00:43;99660.34;;;7.13;70.54
46291;BME280;32023;44.444;26.006;2023-03-16T04:03:10;99661.09;;;7.08;70.95
46291;BME280;32023;44.444;26.006;2023-03-16T04:05:36;99675.03;;;7.07;70.85
46291;BME280;32023;44.444;26.006;2023-03-16T04:08:02;99663.25;;;7.06;71.17
46291;BME280;32023;44.444;26.006;2023-03-16T04:10:29;99658.91;;;7.10;70.93
46291;BME280;32023;44.444;26.006;2023-03-16T04:12:56;99674.53;;;7.10;70.99
46291;BME280;32023;44.444;26.006;2023-03-16T04:15:22;99676.69;;;7.08;70.63
46291;BME280;32023;44.444;26.006;2023-03-16T04:17:49;99682.75;;;7.10;70.29
46291;BME280;32023;44.444;26.006;2023-03-16T04:20:17;99689.81;;;7.06;70.06
46291;BME280;32023;44.444;26.006;2023-03-16T04:22:45;99690.88;;;7.05;69.97
46291;BME280;32023;44.444;26.006;2023-03-16T04:25:12;99686.50;;;7.04;69.84
46291;BME280;32023;44.444;26.006;2023-03-16T04:27:40;99687.56;;;7.03;69.69
46291;BME280;32023;44.444;26.006;2023-03-16T04:30:10;99688.50;;;6.92;68.89
46291;BME280;32023;44.444;26.006;2023-03-16T04:32:37;99683.03;;;6.92;69.76
46291;BME280;32023;44.444;26.006;2023-03-16T04:35:03;99692.34;;;6.91;68.70
46291;BME280;32023;44.444;26.006;2023-03-16T04:37:32;99705.44;;;6.89;68.71
46291;BME280;32023;44.444;26.006;2023-03-16T04:39:59;99715.03;;;6.91;68.40
46291;BME280;32023;44.444;26.006;2023-03-16T04:42:25;99712.38;;;6.96;67.94
46291;BME280;32023;44.444;26.006;2023-03-16T04:44:51;99708.25;;;6.94;67.51
46291;BME280;32023;44.444;26.006;2023-03-16T04:47:18;99727.47;;;6.99;67.57
46291;BME280;32023;44.444;26.006;2023-03-16T04:49:53;99720.91;;;7.00;66.77
46291;BME280;32023;44.444;26.006;2023-03-16T04:52:20;99742.00;;;6.99;66.75
46291;BME280;32023;44.444;26.006;2023-03-16T04:54:47;99739.53;;;6.98;66.58
46291;BME280;32023;44.444;26.006;2023-03-16T04:57:13;99746.91;;;6.97;66.53
46291;BME280;32023;44.444;26.006;2023-03-16T04:59:39;99744.72;;;6.99;66.23
46291;BME280;32023;44.444;26.006;2023-03-16T05:02:06;99760.41;;;7.04;66.37
46291;BME280;32023;44.444;26.006;2023-03-16T05:04:32;99763.97;;;7.04;65.95
46291;BME280;32023;44.444;26.006;2023-03-16T05:06:59;99771.25;;;6.99;64.85
46291;BME280;32023;44.444;26.006;2023-03-16T05:09:25;99760.81;;;6.96;65.07
46291;BME280;32023;44.444;26.006;2023-03-16T05:11:51;99765.22;;;6.97;64.40
46291;BME280;32023;44.444;26.006;2023-03-16T05:14:17;99760.59;;;6.97;64.30
46291;BME280;32023;44.444;26.006;2023-03-16T05:16:44;99769.13;;;7.01;63.92
46291;BME280;32023;44.444;26.006;2023-03-16T05:19:13;99766.06;;;6.97;63.75
46291;BME280;32023;44.444;26.006;2023-03-16T05:21:39;99777.25;;;6.96;63.88
46291;BME280;32023;44.444;26.006;2023-03-16T05:24:09;99778.91;;;6.97;63.42
46291;BME280;32023;44.444;26.006;2023-03-16T05:26:43;99781.13;;;7.00;63.75
46291;BME280;32023;44.444;26.006;2023-03-16T05:29:18;99774.59;;;7.01;63.18
46291;BME280;32023;44.444;26.006;2023-03-16T05:31:47;99787.69;;;6.99;63.32
46291;BME280;32023;44.444;26.006;2023-03-16T05:34:13;99790.59;;;6.92;63.24
46291;BME280;32023;44.444;26.006;2023-03-16T05:36:43;99790.53;;;6.87;63.05
46291;BME280;32023;44.444;26.006;2023-03-16T05:39:09;99798.66;;;6.82;62.60
46291;BME280;32023;44.444;26.006;2023-03-16T05:41:38;99806.13;;;6.87;62.49
46291;BME280;32023;44.444;26.006;2023-03-16T05:44:05;99802.28;;;6.88;62.11
46291;BME280;32023;44.444;26.006;2023-03-16T05:49:28;99823.03;;;6.84;61.65
46291;BME280;32023;44.444;26.006;2023-03-16T05:51:57;99822.22;;;6.83;61.57
46291;BME280;32023;44.444;26.006;2023-03-16T05:54:26;99819.72;;;6.82;60.91
46291;BME280;32023;44.444;26.006;2023-03-16T05:57:03;99811.75;;;6.80;60.70
46291;BME280;32023;44.444;26.006;2023-03-16T06:11:32;99824.19;;;6.71;61.54
46291;BME280;32023;44.444;26.006;2023-03-16T06:14:11;99826.00;;;6.65;61.19
46291;BME280;32023;44.444;26.006;2023-03-16T06:16:51;99840.44;;;6.61;61.63
46291;BME280;32023;44.444;26.006;2023-03-16T06:19:17;99839.63;;;6.60;61.53
46291;BME280;32023;44.444;26.006;2023-03-16T06:21:54;99843.75;;;6.63;62.19
46291;BME280;32023;44.444;26.006;2023-03-16T06:24:20;99838.63;;;6.66;62.22
46291;BME280;32023;44.444;26.006;2023-03-16T06:26:46;99854.94;;;6.61;60.82
46291;BME280;32023;44.444;26.006;2023-03-16T06:29:29;99852.19;;;6.61;60.71
46291;BME280;32023;44.444;26.006;2023-03-16T06:34:54;99861.50;;;6.60;60.93
46291;BME280;32023;44.444;26.006;2023-03-16T06:37:28;99846.16;;;6.59;61.29
46291;BME280;32023;44.444;26.006;2023-03-16T06:39:54;99870.44;;;6.56;61.04
46291;BME280;32023;44.444;26.006;2023-03-16T06:42:21;99866.38;;;6.58;61.55
46291;BME280;32023;44.444;26.006;2023-03-16T06:44:57;99868.03;;;6.59;61.44
46291;BME280;32023;44.444;26.006;2023-03-16T06:50:48;99883.84;;;6.57;60.96
46291;BME280;32023;44.444;26.006;2023-03-16T06:53:20;99886.13;;;6.60;61.41
46291;BME280;32023;44.444;26.006;2023-03-16T06:55:49;99881.22;;;6.62;61.26
46291;BME280;32023;44.444;26.006;2023-03-16T07:00:53;99898.13;;;6.76;61.71
46291;BME280;32023;44.444;26.006;2023-03-16T07:03:19;99904.28;;;6.66;60.47
46291;BME280;32023;44.444;26.006;2023-03-16T07:05:49;99905.84;;;6.62;60.96
46291;BME280;32023;44.444;26.006;2023-03-16T07:08:18;99900.97;;;6.64;60.57
46291;BME280;32023;44.444;26.006;2023-03-16T07:10:44;99904.28;;;6.66;61.37
46291;BME280;32023;44.444;26.006;2023-03-16T07:13:11;99917.94;;;6.66;60.47
46291;BME280;32023;44.444;26.006;2023-03-16T07:15:37;99904.59;;;6.70;61.66
46291;BME280;32023;44.444;26.006;2023-03-16T07:18:03;99915.22;;;6.66;61.66
46291;BME280;32023;44.444;26.006;2023-03-16T07:20:35;99921.53;;;6.67;61.17
46291;BME280;32023;44.444;26.006;2023-03-16T07:23:01;99910.41;;;6.73;61.39
46291;BME280;32023;44.444;26.006;2023-03-16T07:25:27;99927.91;;;6.72;61.09
46291;BME280;32023;44.444;26.006;2023-03-16T07:27:54;99942.28;;;6.80;61.48
46291;BME280;32023;44.444;26.006;2023-03-16T07:30:20;99929.19;;;6.82;61.26
46291;BME280;32023;44.444;26.006;2023-03-16T07:32:56;99942.63;;;6.83;60.41
46291;BME280;32023;44.444;26.006;2023-03-16T07:35:27;99944.75;;;6.81;60.69
46291;BME280;32023;44.444;26.006;2023-03-16T07:37:53;99943.59;;;6.77;60.29
46291;BME280;32023;44.444;26.006;2023-03-16T07:40:21;99955.38;;;6.77;60.75
46291;BME280;32023;44.444;26.006;2023-03-16T07:42:48;99946.72;;;6.69;60.44
46291;BME280;32023;44.444;26.006;2023-03-16T07:45:18;99949.59;;;6.62;60.55
46291;BME280;32023;44.444;26.006;2023-03-16T07:47:49;99949.25;;;6.31;60.55
46291;BME280;32023;44.444;26.006;2023-03-16T07:50:16;99967.97;;;6.50;60.99
46291;BME280;32023;44.444;26.006;2023-03-16T07:55:42;99972.84;;;6.48;61.20
46291;BME280;32023;44.444;26.006;2023-03-16T07:58:11;99967.88;;;6.45;60.43
46291;BME280;32023;44.444;26.006;2023-03-16T08:00:54;99975.00;;;6.46;61.00
46291;BME280;32023;44.444;26.006;2023-03-16T08:03:21;99973.69;;;6.49;60.60
46291;BME280;32023;44.444;26.006;2023-03-16T08:05:47;99981.63;;;6.50;60.63
46291;BME280;32023;44.444;26.006;2023-03-16T08:08:16;99982.25;;;6.52;60.36
46291;BME280;32023;44.444;26.006;2023-03-16T08:10:42;99975.34;;;6.50;60.57
46291;BME280;32023;44.444;26.006;2023-03-16T08:13:08;99986.75;;;6.47;59.95
46291;BME280;32023;44.444;26.006;2023-03-16T08:15:39;99987.75;;;6.41;61.12
46291;BME280;32023;44.444;26.006;2023-03-16T08:18:11;99985.22;;;6.39;60.93
46291;BME280;32023;44.444;26.006;2023-03-16T08:20:37;100001.53;;;6.46;60.58
46291;BME280;32023;44.444;26.006;2023-03-16T08:23:04;100000.31;;;6.53;60.96
46291;BME280;32023;44.444;26.006;2023-03-16T08:25:33;100004.47;;;6.56;61.51
46291;BME280;32023;44.444;26.006;2023-03-16T08:28:06;99997.09;;;6.56;60.73
46291;BME280;32023;44.444;26.006;2023-03-16T08:30:36;100003.88;;;6.54;60.32
46291;BME280;32023;44.444;26.006;2023-03-16T08:33:02;100019.31;;;6.60;60.71
46291;BME280;32023;44.444;26.006;2023-03-16T08:35:29;100015.16;;;6.57;60.18
46291;BME280;32023;44.444;26.006;2023-03-16T08:37:55;100012.91;;;6.54;59.97
46291;BME280;32023;44.444;26.006;2023-03-16T08:42:55;100042.16;;;6.54;61.07
46291;BME280;32023;44.444;26.006;2023-03-16T08:45:31;100037.75;;;6.64;61.46
46291;BME280;32023;44.444;26.006;2023-03-16T08:48:02;100042.75;;;6.67;61.25
46291;BME280;32023;44.444;26.006;2023-03-16T08:50:29;100042.09;;;6.77;60.98
46291;BME280;32023;44.444;26.006;2023-03-16T08:52:59;100044.84;;;6.77;60.19
46291;BME280;32023;44.444;26.006;2023-03-16T08:55:25;100044.59;;;6.78;60.98
46291;BME280;32023;44.444;26.006;2023-03-16T08:57:54;100051.25;;;6.83;61.34
46291;BME280;32023;44.444;26.006;2023-03-16T09:00:23;100041.34;;;6.93;61.27
46291;BME280;32023;44.444;26.006;2023-03-16T09:02:53;100048.09;;;7.02;61.71
46291;BME280;32023;44.444;26.006;2023-03-16T09:05:27;100055.31;;;7.08;61.62
46291;BME280;32023;44.444;26.006;2023-03-16T09:07:57;100066.38;;;7.13;61.48
46291;BME280;32023;44.444;26.006;2023-03-16T09:10:47;100060.63;;;7.15;61.97
46291;BME280;32023;44.444;26.006;2023-03-16T09:13:13;100065.63;;;7.18;62.29
46291;BME280;32023;44.444;26.006;2023-03-16T09:15:41;100061.72;;;7.14;61.64
46291;BME280;32023;44.444;26.006;2023-03-16T09:18:07;100062.81;;;7.13;61.72
46291;BME280;32023;44.444;26.006;2023-03-16T09:20:46;100066.22;;;7.20;62.00
46291;BME280;32023;44.444;26.006;2023-03-16T09:23:14;100064.06;;;7.22;62.07
46291;BME280;32023;44.444;26.006;2023-03-16T09:25:41;100066.78;;;7.22;62.13
46291;BME280;32023;44.444;26.006;2023-03-16T09:28:10;100065.34;;;7.31;62.74
46291;BME280;32023;44.444;26.006;2023-03-16T09:30:39;100083.13;;;7.45;62.59
46291;BME280;32023;44.444;26.006;2023-03-16T09:33:06;100081.16;;;7.57;62.44
46291;BME280;32023;44.444;26.006;2023-03-16T09:35:34;100095.59;;;7.53;61.90
46291;BME280;32023;44.444;26.006;2023-03-16T09:38:03;100080.28;;;7.40;61.70
46291;BME280;32023;44.444;26.006;2023-03-16T09:40:30;100098.53;;;7.35;62.65
46291;BME280;32023;44.444;26.006;2023-03-16T09:43:00;100103.94;;;7.18;63.17
46291;BME280;32023;44.444;26.006;2023-03-16T09:45:36;100085.59;;;7.02;63.01
46291;BME280;32023;44.444;26.006;2023-03-16T09:48:07;100097.59;;;7.01;63.65
46291;BME280;32023;44.444;26.006;2023-03-16T09:50:38;100104.41;;;6.98;63.93
46291;BME280;32023;44.444;26.006;2023-03-16T09:55:32;100111.53;;;6.99;65.72
46291;BME280;32023;44.444;26.006;2023-03-16T09:58:00;100115.69;;;7.02;65.58
46291;BME280;32023;44.444;26.006;2023-03-16T10:00:29;100113.53;;;7.04;65.64
46291;BME280;32023;44.444;26.006;2023-03-16T10:03:10;100127.94;;;6.99;66.11
46291;BME280;32023;44.444;26.006;2023-03-16T10:05:43;100121.91;;;6.86;65.78
46291;BME280;32023;44.444;26.006;2023-03-16T10:08:13;100126.94;;;6.65;66.66
46291;BME280;32023;44.444;26.006;2023-03-16T10:13:17;100132.53;;;6.70;67.55
46291;BME280;32023;44.444;26.006;2023-03-16T10:15:55;100127.91;;;6.71;68.33
46291;BME280;32023;44.444;26.006;2023-03-16T10:18:43;100137.03;;;6.65;68.88
46291;BME280;32023;44.444;26.006;2023-03-16T10:21:14;100130.78;;;6.64;69.79
46291;BME280;32023;44.444;26.006;2023-03-16T10:23:44;100129.31;;;6.62;69.83
46291;BME280;32023;44.444;26.006;2023-03-16T10:26:22;100137.03;;;6.65;69.84
46291;BME280;32023;44.444;26.006;2023-03-16T10:29:00;100132.88;;;6.74;70.61
46291;BME280;32023;44.444;26.006;2023-03-16T10:31:31;100131.53;;;6.88;69.82
46291;BME280;32023;44.444;26.006;2023-03-16T10:34:04;100135.38;;;6.87;70.24
46291;BME280;32023;44.444;26.006;2023-03-16T10:36:31;100127.25;;;6.92;70.56
46291;BME280;32023;44.444;26.006;2023-03-16T10:41:30;100127.47;;;7.02;70.84
46291;BME280;32023;44.444;26.006;2023-03-16T10:49:56;100131.69;;;7.21;71.27
46291;BME280;32023;44.444;26.006;2023-03-16T10:55:05;100133.19;;;7.29;70.66
46291;BME280;32023;44.444;26.006;2023-03-16T10:57:42;100140.34;;;7.30;70.52
46291;BME280;32023;44.444;26.006;2023-03-16T11:00:12;100131.06;;;7.31;71.56
46291;BME280;32023;44.444;26.006;2023-03-16T11:02:46;100144.38;;;7.39;70.97
46291;BME280;32023;44.444;26.006;2023-03-16T11:05:23;100131.75;;;7.38;70.60
46291;BME280;32023;44.444;26.006;2023-03-16T11:08:07;100129.88;;;7.27;70.81
46291;BME280;32023;44.444;26.006;2023-03-16T11:10:38;100136.59;;;7.19;71.64
46291;BME280;32023;44.444;26.006;2023-03-16T11:13:07;100125.84;;;7.18;72.17
46291;BME280;32023;44.444;26.006;2023-03-16T11:15:35;100140.66;;;7.17;72.06
46291;BME280;32023;44.444;26.006;2023-03-16T11:18:15;100132.81;;;7.09;71.71
46291;BME280;32023;44.444;26.006;2023-03-16T11:20:55;100143.44;;;6.94;71.24
46291;BME280;32023;44.444;26.006;2023-03-16T11:23:29;100131.88;;;6.92;72.22
46291;BME280;32023;44.444;26.006;2023-03-16T11:26:02;100136.44;;;6.86;72.25
46291;BME280;32023;44.444;26.006;2023-03-16T11:28:35;100138.00;;;6.82;72.13
46291;BME280;32023;44.444;26.006;2023-03-16T11:31:09;100138.34;;;6.86;73.01
46291;BME280;32023;44.444;26.006;2023-03-16T11:33:40;100140.38;;;6.90;72.79
46291;BME280;32023;44.444;26.006;2023-03-16T11:44:25;100136.41;;;6.98;73.17
46291;BME280;32023;44.444;26.006;2023-03-16T12:23:47;100162.25;;;7.87;70.23
46291;BME280;32023;44.444;26.006;2023-03-16T12:26:15;100162.50;;;7.85;69.93
46291;BME280;32023;44.444;26.006;2023-03-16T12:28:42;100160.78;;;7.96;69.81
46291;BME280;32023;44.444;26.006;2023-03-16T12:31:14;100162.59;;;8.07;69.77
46291;BME280;32023;44.444;26.006;2023-03-16T12:50:29;100174.63;;;8.34;68.18
46291;BME280;32023;44.444;26.006;2023-03-16T12:52:56;100188.06;;;8.36;68.04
46291;BME280;32023;44.444;26.006;2023-03-16T12:55:38;100186.06;;;8.31;67.85
46291;BME280;32023;44.444;26.006;2023-03-16T12:58:07;100189.41;;;8.33;68.50
46291;BME280;32023;44.444;26.006;2023-03-16T13:00:43;100193.06;;;8.39;68.30
46291;BME280;32023;44.444;26.006;2023-03-16T13:03:31;100188.50;;;8.44;67.96
46291;BME280;32023;44.444;26.006;2023-03-16T13:08:49;100201.19;;;8.67;67.42
46291;BME280;32023;44.444;26.006;2023-03-16T13:11:17;100202.53;;;8.64;67.53
46291;BME280;32023;44.444;26.006;2023-03-16T13:14:04;100204.69;;;8.62;67.20
46291;BME280;32023;44.444;26.006;2023-03-16T13:16:34;100204.13;;;8.60;66.71
46291;BME280;32023;44.444;26.006;2023-03-16T13:21:47;100211.59;;;8.48;66.37
46291;BME280;32023;44.444;26.006;2023-03-16T13:26:41;100206.63;;;8.45;66.32
46291;BME280;32023;44.444;26.006;2023-03-16T13:31:41;100222.16;;;8.40;67.07
46291;BME280;32023;44.444;26.006;2023-03-16T13:34:18;100220.69;;;8.49;67.03
46291;BME280;32023;44.444;26.006;2023-03-16T13:36:55;100224.81;;;8.51;67.22
46291;BME280;32023;44.444;26.006;2023-03-16T13:39:23;100222.16;;;8.56;67.74
46291;BME280;32023;44.444;26.006;2023-03-16T13:42:00;100230.88;;;8.70;67.69
46291;BME280;32023;44.444;26.006;2023-03-16T13:44:27;100237.88;;;8.78;67.08
46291;BME280;32023;44.444;26.006;2023-03-16T13:46:53;100241.13;;;8.75;66.73
46291;BME280;32023;44.444;26.006;2023-03-16T13:49:22;100231.63;;;8.82;66.58
46291;BME280;32023;44.444;26.006;2023-03-16T13:51:49;100238.59;;;8.90;66.80
46291;BME280;32023;44.444;26.006;2023-03-16T13:54:23;100241.91;;;8.92;66.84
46291;BME280;32023;44.444;26.006;2023-03-16T13:57:02;100237.84;;;8.94;67.21
46291;BME280;32023;44.444;26.006;2023-03-16T13:59:37;100244.31;;;9.05;67.28
46291;BME280;32023;44.444;26.006;2023-03-16T14:02:10;100245.53;;;9.14;67.55
46291;BME280;32023;44.444;26.006;2023-03-16T14:04:44;100242.13;;;9.24;66.86
46291;BME280;32023;44.444;26.006;2023-03-16T14:07:20;100244.16;;;9.33;66.68
46291;BME280;32023;44.444;26.006;2023-03-16T14:09:48;100243.97;;;9.40;66.06
46291;BME280;32023;44.444;26.006;2023-03-16T14:12:26;100251.97;;;9.41;65.56
46291;BME280;32023;44.444;26.006;2023-03-16T14:14:54;100247.84;;;9.22;67.56
46291;BME280;32023;44.444;26.006;2023-03-16T14:17:29;100257.41;;;8.98;69.37
46291;BME280;32023;44.444;26.006;2023-03-16T14:22:55;100259.50;;;8.57;72.10
46291;BME280;32023;44.444;26.006;2023-03-16T14:28:18;100260.03;;;8.26;72.57
46291;BME280;32023;44.444;26.006;2023-03-16T14:31:04;100263.50;;;8.21;73.40
46291;BME280;32023;44.444;26.006;2023-03-16T14:33:35;100269.16;;;8.15;74.55
46291;BME280;32023;44.444;26.006;2023-03-16T14:36:11;100270.13;;;8.09;75.23
46291;BME280;32023;44.444;26.006;2023-03-16T14:38:39;100273.81;;;8.14;75.45
46291;BME280;32023;44.444;26.006;2023-03-16T14:43:47;100286.13;;;8.12;74.21
46291;BME280;32023;44.444;26.006;2023-03-16T14:46:23;100280.13;;;8.15;74.39
46291;BME280;32023;44.444;26.006;2023-03-16T14:51:34;100292.06;;;8.09;75.05
46291;BME280;32023;44.444;26.006;2023-03-16T14:54:04;100297.47;;;8.04;76.04
46291;BME280;32023;44.444;26.006;2023-03-16T14:56:31;100296.28;;;8.00;76.41
46291;BME280;32023;44.444;26.006;2023-03-16T14:58:58;100302.00;;;7.98;77.11
46291;BME280;32023;44.444;26.006;2023-03-16T15:01:25;100309.66;;;7.96;76.99
46291;BME280;32023;44.444;26.006;2023-03-16T15:03:51;100310.53;;;7.85;76.53
46291;BME280;32023;44.444;26.006;2023-03-16T15:06:23;100317.91;;;7.85;77.34
46291;BME280;32023;44.444;26.006;2023-03-16T15:08:50;100309.94;;;7.83;77.66
46291;BME280;32023;44.444;26.006;2023-03-16T15:11:18;100325.53;;;7.83;77.71
46291;BME280;32023;44.444;26.006;2023-03-16T15:16:15;100318.81;;;7.62;78.27
46291;BME280;32023;44.444;26.006;2023-03-16T15:18:42;100322.13;;;7.64;78.91
46291;BME280;32023;44.444;26.006;2023-03-16T15:21:30;100329.78;;;7.62;79.44
46291;BME280;32023;44.444;26.006;2023-03-16T15:23:55;100336.56;;;7.59;79.92
46291;BME280;32023;44.444;26.006;2023-03-16T15:26:37;100333.94;;;7.64;79.97
46291;BME280;32023;44.444;26.006;2023-03-16T15:29:05;100339.41;;;7.64;80.03
46291;BME280;32023;44.444;26.006;2023-03-16T15:31:36;100339.63;;;7.63;79.63
46291;BME280;32023;44.444;26.006;2023-03-16T15:34:03;100356.00;;;7.58;78.75
46291;BME280;32023;44.444;26.006;2023-03-16T15:39:39;100366.13;;;7.57;78.70
46291;BME280;32023;44.444;26.006;2023-03-16T15:42:16;100368.63;;;7.59;79.03
46291;BME280;32023;44.444;26.006;2023-03-16T15:44:46;100372.09;;;7.54;79.61
46291;BME280;32023;44.444;26.006;2023-03-16T15:47:12;100382.34;;;7.47;79.76
46291;BME280;32023;44.444;26.006;2023-03-16T15:49:39;100382.69;;;7.39;79.94
46291;BME280;32023;44.444;26.006;2023-03-16T15:52:06;100398.03;;;7.40;79.76